Flight Track Log - Related Links

Times and Time Zones

All times are in EDT time to prevent confusion due to time zone crossing. See the ASQ5685 flight status page for this flight to view local times or setup timezone preferences in your user account.

Time Position Orientation Groundspeed Altitude Reporting Facility
EDT Latitude Longitude Course Direction KTS MPH feet Rate Location/Type
Tue 09:40:45 AM 33.6350 -84.3906 72° East 381 438 29,000  Level Atlanta Center
Tue 09:41:45 AM 33.6333 -84.3158 92° East 289 333 4,400 -10,900 Descending Atlanta Center
Tue 09:42:00 AM 33.8698 -84.1508 54° Northeast  Level Estimated
Tue 09:42:45 AM 33.6314 -84.2208 91° East 279 321 7,200  Level Atlanta Center
Tue 09:43:00 AM 33.9474 -84.0582 48° Northeast  Level Estimated
Tue 09:43:45 AM 33.6336 -84.1236 88° East 294 338 10,000  Level Atlanta Center
Tue 09:44:00 AM 34.0248 -83.9653 53° Northeast  Level Estimated
Tue 09:44:45 AM 33.6836 -84.0364 55° Northeast 294 338 11,200  Level Atlanta Center
Tue 09:45:00 AM 34.0581 -83.8397 72° East  Level FlightAware Approximate
Tue 09:45:45 AM 33.7525 -83.9464 47° Northeast 326 375 12,600  Level Atlanta Center
Tue 09:46:45 AM 33.8253 -83.8536 47° Northeast 361 415 14,400 1,700 Climbing Atlanta Center
Tue 09:47:45 AM 33.8961 -83.7611 47° Northeast 368 423 16,000 1,400 Climbing Atlanta Center
Tue 09:48:45 AM 33.9647 -83.6581 51° Northeast 380 437 17,200 1,050 Climbing Atlanta Center
Tue 09:49:45 AM 34.0394 -83.5450 51° Northeast 389 448 18,100 950 Climbing Atlanta Center
Tue 09:50:45 AM 34.1058 -83.4317 55° Northeast 402 463 19,100 1,000 Climbing Atlanta Center
Tue 09:51:45 AM 34.1761 -83.3231 52° Northeast 407 468 20,100 950 Climbing Atlanta Center
Tue 09:52:45 AM 34.2444 -83.2094 54° Northeast 413 475 21,000 850 Climbing Atlanta Center
Tue 09:53:45 AM 34.3144 -83.0956 53° Northeast 420 483 21,800 750 Climbing Atlanta Center
Tue 09:54:45 AM 34.3886 -82.9842 51° Northeast 415 478 22,500 700 Climbing Atlanta Center
Tue 09:55:45 AM 34.4564 -82.8647 55° Northeast 420 483 23,200 600 Climbing Atlanta Center
Tue 09:56:45 AM 34.5325 -82.7503 51° Northeast 420 483 23,700 650 Climbing Atlanta Center
Tue 09:57:45 AM 34.6083 -82.6306 52° Northeast 436 502 24,500 800 Climbing Atlanta Center
Tue 09:58:45 AM 34.6678 -82.5311 54° Northeast 429 494 25,300 900 Climbing Atlanta Center
Tue 09:59:45 AM 34.7394 -82.4133 53° Northeast 424 488 26,300 950 Climbing Atlanta Center
Tue 10:00:45 AM 34.8086 -82.2958 54° Northeast 424 488 27,200 850 Climbing Atlanta Center
Tue 10:01:45 AM 34.8800 -82.1828 52° Northeast 418 481 28,000 850 Climbing Atlanta Center
Tue 10:02:45 AM 34.9514 -82.0672 53° Northeast 418 481 28,900 500 Climbing Atlanta Center
Tue 10:03:45 AM 35.0225 -81.9514 53° Northeast 423 487 29,000 50 Climbing Atlanta Center
Tue 10:04:45 AM 35.0850 -81.8331 57° Northeast 418 481 29,000  Level Atlanta Center
Tue 10:05:45 AM 35.1475 -81.7172 57° Northeast 413 475 29,000  Level Atlanta Center
Tue 10:06:45 AM 35.2058 -81.6011 58° Northeast 402 463 29,000  Level Atlanta Center
Tue 10:07:45 AM 35.2683 -81.4872 56° Northeast 402 463 29,000  Level Atlanta Center
Tue 10:08:45 AM 35.3303 -81.3631 59° Northeast 395 455 29,000  Level Atlanta Center
Tue 10:09:45 AM 35.3903 -81.2467 58° Northeast 395 455 29,000  Level Atlanta Center
Tue 10:10:45 AM 35.4503 -81.1325 57° Northeast 395 455 29,000  Level Atlanta Center
Tue 10:11:45 AM 35.5100 -81.0156 58° Northeast 395 455 29,000  Level Atlanta Center
Tue 10:12:45 AM 35.5697 -80.9008 57° Northeast 395 455 29,000  Level Atlanta Center
Tue 10:13:45 AM 35.6294 -80.7914 56° Northeast 395 455 29,000  Level Atlanta Center
Tue 10:14:45 AM 35.6889 -80.6739 58° Northeast 395 455 29,000  Level Atlanta Center
Tue 10:15:45 AM 35.7483 -80.5614 57° Northeast 395 455 29,000  Level Atlanta Center
Tue 10:16:45 AM 35.8056 -80.4464 58° Northeast 395 455 29,000  Level Atlanta Center
Tue 10:18:34 AM 35.9069 -80.2464 58° Northeast 395 455 29,000  Level Washington Center
Tue 10:19:34 AM 35.9656 -80.1294 58° Northeast 395 455 29,000  Level Washington Center
Tue 10:20:32 AM 36.0306 -80.0097 56° Northeast 390 449 29,000  Level Washington Center
Tue 10:21:33 AM 36.0933 -79.8950 56° Northeast 390 449 29,000  Level Washington Center
Tue 10:22:34 AM 36.1556 -79.7853 55° Northeast 390 449 29,000  Level Washington Center
Tue 10:23:31 AM 36.2200 -79.6703 55° Northeast 390 449 29,000  Level Washington Center
Tue 10:24:33 AM 36.2844 -79.5575 55° Northeast 390 449 29,000  Level Washington Center
Tue 10:25:34 AM 36.3397 -79.4597 55° Northeast 390 449 29,000  Level Washington Center
Tue 10:26:35 AM 36.4064 -79.3367 56° Northeast 390 449 29,000  Level Washington Center
Tue 10:27:32 AM 36.4703 -79.2236 55° Northeast 390 449 29,000 -559 Level Washington Center
Tue 10:28:33 AM 36.5319 -79.1153 55° Northeast 390 449 27,900 -1,033 Descending Washington Center
Tue 10:29:34 AM 36.5958 -79.0017 55° Northeast 390 449 26,900 -1,059 Descending Washington Center
Tue 10:30:32 AM 36.6572 -78.8931 55° Northeast 395 455 25,800 -958 Descending Washington Center
Tue 10:31:33 AM 36.7167 -78.7789 57° Northeast 390 449 25,000 -397 Descending Washington Center
Tue 10:32:33 AM 36.7736 -78.6750 56° Northeast 380 437 25,000 -248 Level Washington Center
Tue 10:33:34 AM 36.8467 -78.5869 44° Northeast 366 421 24,500 -496 Descending Washington Center
Tue 10:34:34 AM 36.9261 -78.4967 42° Northeast 366 421 24,000 -508 Descending Washington Center
Tue 10:35:32 AM 36.9989 -78.4189 40° Northeast 373 429 23,500 -504 Descending Washington Center
Tue 10:36:33 AM 37.0803 -78.3306 41° Northeast 378 435 23,000 -446 Descending Washington Center
Tue 10:37:33 AM 37.1594 -78.2447 41° Northeast 378 435 22,600 -335 Descending Washington Center
Tue 10:39:32 AM 37.3197 -78.0650 42° Northeast 367 422 22,000 -200 Descending Washington Center
Tue 10:40:33 AM 37.3944 -77.9786 43° Northeast 367 422 22,000  Level Washington Center
Tue 10:41:34 AM 37.4669 -77.8969 42° Northeast 362 417 22,000 -151 Level Washington Center
Tue 10:42:32 AM 37.5456 -77.8208 38° Northeast 356 410 21,700 -403 Descending Washington Center
Tue 10:43:33 AM 37.6364 -77.7658 26° Northeast 356 410 21,200 -893 Descending Washington Center
Tue 10:44:33 AM 37.7228 -77.7158 25° Northeast 350 403 19,900 -1,537 Descending Washington Center
Tue 10:45:34 AM 37.8092 -77.6631 26° Northeast 344 396 18,100 -1,765 Descending Washington Center
Tue 10:46:32 AM 37.8933 -77.6153 24° Northeast 339 390 16,400 -1,740 Descending Washington Center
Tue 10:47:45 AM 37.9903 -77.5572 25° Northeast 326 375 14,300 -1,701 Descending Washington Center
Tue 10:48:46 AM 38.0639 -77.5169 23° Northeast 321 369 12,600 -1,714 Descending Washington Center
Tue 10:49:44 AM 38.1439 -77.4717 24° Northeast 321 369 10,900 -1,613 Descending Washington Center
Tue 10:50:45 AM 38.2156 -77.4258 27° Northeast 308 354 9,400 -1,289 Descending Washington Center
Tue 10:51:45 AM 38.2869 -77.3958 18° North 289 333 8,300 -1,041 Descending Washington Center
Tue 10:52:46 AM 38.3528 -77.4425 331° Northwest 250 288 7,300 2,390 Descending Washington Center
Tue 10:53:43 AM 38.4297 -77.4708 344° North 250 288 13,000 -303 Climbing Washington Center
Tue 10:54:45 AM 38.4983 -77.4700 North 258 297 6,700 -3,393 Descending Washington Center
Tue 10:55:45 AM 38.5736 -77.4664 North 258 297 6,100 -658 Descending Washington Center
Tue 10:57:11 AM 38.6833 -77.4667 360° North 241 277 5,100 -699 Descending Potomac TRACON
Tue 10:58:11 AM 38.7333 -77.4667 360° North 190 219 4,400 -850 Descending Potomac TRACON
Tue 10:59:11 AM 38.7833 -77.4667 360° North 169 194 3,400 -950 Descending Potomac TRACON
Tue 11:00:11 AM 38.8333 -77.4667 360° North 169 194 2,500 -850 Descending Potomac TRACON
Tue 11:01:11 AM 38.8833 -77.4667 360° North 140 161 1,700 -800 Descending Potomac TRACON
Tue 11:02:11 AM 38.9167 -77.4667 360° North 133 153 900 -800 Descending Potomac TRACON

Login

Don't have an account? Register now (free) for customized features, flight alerts, and more!